• Join FlightAware (Why Join?)
  • Login
  • US Flag 
05:01PM EDT


 

Airport Tracker/Info


-or-


 

Live Flight TrackerFlight Track Log ✈ N245P ✈ 27-Sep-2013 ✈ KMLE - KANW

Flight Track Log - Related Links

Times and Time Zones

All times are in EDT time to prevent confusion due to time zone crossing. See the N245P flight status page for this flight to view local times or setup timezone preferences in your user account.

Time Position Orientation Groundspeed Altitude Reporting Facility
EDT Latitude Longitude Course Direction KTS MPH feet Rate Location/Type
11:34AM 41.1875 -96.1036 130° Southeast 109 125 1,400  Level Minneapolis Center
11:35AM 41.1664 -96.0700 130° Southeast 117 135 2,300 720 Climbing Minneapolis Center
11:36AM 41.1481 -96.0678 175° South 137 158 2,800 660 Climbing Minneapolis Center
11:36AM 41.1461 -96.0781 256° West 152 175 3,000 720 Climbing Minneapolis Center
11:37AM 41.1756 -96.1167 315° West 158 182 3,600 660 Climbing Minneapolis Center
11:37AM 41.1742 -96.1244 257° West 155 178 3,700 660 Climbing Minneapolis Center
11:38AM 41.1947 -96.1689 302° West 158 182 4,300 660 Climbing Minneapolis Center
11:38AM 41.1922 -96.1781 250° West 156 180 4,400 780 Climbing Minneapolis Center
11:39AM 41.2100 -96.2286 295° West 152 175 5,200 660 Climbing Minneapolis Center
11:40AM 41.2331 -96.2706 306° West 154 177 5,800 780 Climbing Minneapolis Center
11:40AM 41.2303 -96.2817 252° West 152 175 6,000 660 Climbing Minneapolis Center
11:41AM 41.2522 -96.3200 307° West 152 175 6,500 540 Climbing Minneapolis Center
11:41AM 41.2500 -96.3294 253° West 151 174 6,600 660 Climbing Minneapolis Center
11:42AM 41.2717 -96.3692 306° West 151 174 7,200 540 Climbing Minneapolis Center
11:43AM 41.2878 -96.4333 288° West 153 176 7,800 480 Climbing Minneapolis Center
11:43AM 41.2908 -96.4197 73° East 152 175 7,700 180 Descending Minneapolis Center
11:44AM 41.3078 -96.4894 288° West 168 193 8,000 240 Climbing Minneapolis Center
11:44AM 41.3153 -96.4850 24° Northeast 160 184 8,000  Level Minneapolis Center
11:45AM 41.3281 -96.5456 286° West 174 200 8,000  Level Minneapolis Center
11:45AM 41.3375 -96.5425 14° North 170 196 8,000  Level Minneapolis Center
11:46AM 41.3597 -96.5997 297° West 174 200 8,000  Level Minneapolis Center
11:47AM 41.3811 -96.6572 296° West 173 199 8,000  Level Minneapolis Center
11:48AM 41.4028 -96.7142 297° West 173 199 8,000  Level Minneapolis Center
11:49AM 41.4253 -96.7700 298° West 172 198 8,000  Level Minneapolis Center
11:50AM 41.4469 -96.8281 296° West 173 199 8,000  Level Minneapolis Center
11:51AM 41.4942 -96.8783 321° Northwest 204 235 8,000  Level Minneapolis Center
11:52AM 41.5461 -96.9111 335° Northwest 206 237 8,000  Level Minneapolis Center
11:53AM 41.5936 -96.9461 331° Northwest 200 230 8,000  Level Minneapolis Center
11:54AM 41.6397 -96.9839 329° Northwest 196 226 8,000  Level Minneapolis Center
11:55AM 41.6875 -97.0192 331° Northwest 195 224 8,000  Level Minneapolis Center
11:56AM 41.7353 -97.0547 331° Northwest 196 226 8,000  Level Minneapolis Center
11:57AM 41.7817 -97.0922 329° Northwest 195 224 8,000  Level Minneapolis Center
11:58AM 41.8383 -97.1356 330° Northwest 196 226 8,000  Level Minneapolis Center
11:59AM 41.8856 -97.1714 331° Northwest 196 226 8,000  Level Minneapolis Center
12:00PM 41.9319 -97.2092 329° Northwest 194 223 8,000  Level Minneapolis Center
12:01PM 41.9800 -97.2447 331° Northwest 196 226 8,000  Level Minneapolis Center
12:02PM 42.0281 -97.2811 331° Northwest 197 227 8,000  Level Minneapolis Center
12:03PM 42.0761 -97.3172 331° Northwest 197 227 8,000  Level Minneapolis Center
12:04PM 42.1364 -97.3592 333° Northwest 201 231 8,000  Level Minneapolis Center
12:05PM 42.1458 -97.4189 282° West 170 196 8,000  Level Minneapolis Center
12:06PM 42.1583 -97.4761 286° West 160 184 8,000  Level Minneapolis Center
12:08PM 42.1686 -97.5350 283° West 161 185 8,000  Level Minneapolis Center
12:09PM 42.1794 -97.5933 284° West 161 185 8,000  Level Minneapolis Center
12:10PM 42.1908 -97.6533 284° West 164 189 8,000  Level Minneapolis Center
12:11PM 42.2000 -97.7131 282° West 164 189 8,000  Level Minneapolis Center
12:12PM 42.2125 -97.7853 283° West 164 189 8,000  Level Minneapolis Center
12:13PM 42.2244 -97.8464 285° West 167 192 8,000  Level Minneapolis Center
12:14PM 42.2347 -97.9069 283° West 166 191 8,000  Level Minneapolis Center
12:15PM 42.2461 -97.9681 284° West 167 192 8,000  Level Minneapolis Center
12:16PM 42.2569 -98.0283 284° West 166 191 8,000  Level Minneapolis Center
12:17PM 42.2661 -98.0900 281° West 167 192 8,000  Level Minneapolis Center
12:18PM 42.2800 -98.1636 284° West 168 193 8,000  Level Minneapolis Center
12:19PM 42.2903 -98.2233 283° West 166 191 8,000  Level Minneapolis Center
12:20PM 42.3003 -98.2828 283° West 165 190 8,000  Level Minneapolis Center
12:21PM 42.3100 -98.3397 283° West 162 186 8,000  Level Minneapolis Center
12:22PM 42.3192 -98.3953 283° West 158 182 8,000  Level Minneapolis Center
12:24PM 42.3394 -98.5092 284° West 156 180 8,000  Level Minneapolis Center
12:25PM 42.3500 -98.5747 282° West 154 177 8,000  Level Minneapolis Center
12:26PM 42.3589 -98.6300 282° West 152 175 8,000  Level Minneapolis Center
12:27PM 42.3686 -98.6833 284° West 150 173 8,000  Level Minneapolis Center
12:28PM 42.3775 -98.7383 282° West 149 171 8,100  Climbing Minneapolis Center
12:29PM 42.3872 -98.7944 283° West 151 174 8,000  Descending Minneapolis Center
12:30PM 42.3972 -98.8497 284° West 151 174 8,100  Climbing Minneapolis Center
12:31PM 42.4078 -98.9153 282° West 150 173 8,000 -60 Descending Minneapolis Center
12:32PM 42.4164 -98.9706 282° West 150 173 8,000  Level Minneapolis Center
12:33PM 42.4258 -99.0261 283° West 150 173 8,000  Level Minneapolis Center
12:34PM 42.4275 -99.0786 272° West 147 169 8,000  Level Minneapolis Center
12:35PM 42.4253 -99.1294 267° West 140 161 8,000  Level Minneapolis Center
12:36PM 42.4231 -99.1825 267° West 140 161 8,000  Level Minneapolis Center
12:38PM 42.4203 -99.2458 267° West 139 160 8,000  Level Denver Center
12:39PM 42.4175 -99.2997 266° West 140 161 8,000  Level Denver Center
12:40PM 42.4158 -99.3542 268° West 143 165 8,000  Level Denver Center
12:41PM 42.4117 -99.4075 264° West 143 165 8,000  Level Minneapolis Center
12:42PM 42.4103 -99.4614 268° West 144 166 8,000 -300 Level Minneapolis Center
12:43PM 42.4069 -99.5172 265° West 145 167 7,500 -420 Descending Minneapolis Center
12:44PM 42.4056 -99.5806 268° West 149 171 7,200 -300 Descending Minneapolis Center
12:46PM 42.3960 -99.6683 262° West  Level FlightAware Approximate
12:53PM 42.4346 -99.9833 North  Level FlightAware Approximate
12:54PM 42.4777 -99.9833 360° North  Level FlightAware Approximate
12:55PM 42.5209 -99.9833 360° North  Level FlightAware Approximate